createdAt,value
2022-07-30T00:02:01.010Z,18.29
2022-07-30T00:07:04.117Z,18.21
2022-07-30T00:12:08.146Z,18.12
2022-07-30T00:17:09.941Z,18.04
2022-07-30T00:22:11.711Z,17.96
2022-07-30T00:27:15.429Z,17.88
2022-07-30T00:32:17.137Z,17.82
2022-07-30T00:37:18.738Z,17.83
2022-07-30T00:42:25.739Z,17.79
2022-07-30T00:47:27.456Z,17.75
2022-07-30T00:52:29.195Z,17.73
2022-07-30T00:57:31.257Z,17.66
2022-07-30T01:02:34.439Z,17.70
2022-07-30T01:07:36.458Z,17.69
2022-07-30T01:12:38.542Z,17.56
2022-07-30T01:17:40.782Z,17.53
2022-07-30T01:23:16.312Z,17.54
2022-07-30T01:28:24.546Z,17.46
2022-07-30T01:33:27.830Z,17.39
2022-07-30T01:38:34.876Z,17.41
2022-07-30T01:43:38.637Z,17.34
2022-07-30T01:48:42.497Z,17.29
2022-07-30T01:53:49.531Z,17.23
2022-07-30T01:58:55.064Z,17.20
2022-07-30T02:04:02.038Z,17.19
2022-07-30T02:09:10.825Z,17.14
2022-07-30T02:14:26.404Z,17.14
2022-07-30T02:19:36.682Z,17.13
2022-07-30T02:24:44.354Z,17.07
2022-07-30T02:29:47.562Z,17.10
2022-07-30T02:34:55.932Z,17.04
2022-07-30T02:39:58.210Z,16.99
2022-07-30T02:45:01.855Z,16.99
2022-07-30T02:50:05.290Z,16.98
2022-07-30T02:55:09.787Z,16.92
2022-07-30T03:00:12.496Z,16.89
2022-07-30T03:05:16.054Z,16.81
2022-07-30T03:10:18.344Z,16.76
2022-07-30T03:15:23.255Z,16.75
2022-07-30T03:20:28.387Z,16.76
2022-07-30T03:25:31.889Z,16.76
2022-07-30T03:30:35.051Z,16.76
2022-07-30T03:35:38.285Z,16.71
2022-07-30T03:40:42.330Z,16.71
2022-07-30T03:45:45.543Z,16.68
2022-07-30T03:50:50.159Z,16.61
2022-07-30T03:55:53.032Z,16.66
2022-07-30T04:01:13.059Z,16.59
2022-07-30T04:06:16.081Z,16.58
2022-07-30T04:11:19.026Z,16.57
2022-07-30T04:17:18.474Z,16.58
2022-07-30T04:22:29.838Z,16.64
2022-07-30T04:27:32.491Z,16.69
2022-07-30T04:32:35.491Z,16.64
2022-07-30T04:38:14.395Z,16.69
2022-07-30T04:43:23.880Z,16.71
2022-07-30T04:48:28.337Z,16.76
2022-07-30T04:53:47.770Z,16.83
2022-07-30T04:58:53.244Z,16.83
2022-07-30T05:03:56.404Z,16.87
2022-07-30T05:08:58.267Z,16.95
2022-07-30T05:14:00.040Z,17.01
2022-07-30T05:19:01.745Z,17.09
2022-07-30T05:24:09.608Z,17.11
2022-07-30T05:29:14.262Z,17.21
2022-07-30T05:34:25.542Z,17.35
2022-07-30T05:39:28.835Z,17.41
2022-07-30T05:44:51.147Z,17.50
2022-07-30T05:49:54.844Z,17.53
2022-07-30T05:54:56.447Z,17.54
2022-07-30T06:00:23.736Z,17.59
2022-07-30T06:05:29.328Z,17.70
2022-07-30T06:10:34.755Z,17.75
2022-07-30T06:15:36.503Z,17.81
2022-07-30T06:20:39.905Z,17.82
2022-07-30T06:26:05.539Z,17.91
2022-07-30T06:31:07.876Z,18.00
2022-07-30T06:36:14.179Z,18.07
2022-07-30T06:41:48.515Z,17.96
2022-07-30T06:46:53.207Z,17.95
2022-07-30T06:52:02.590Z,18.12
2022-07-30T06:57:05.100Z,18.21
2022-07-30T07:02:08.483Z,18.22
2022-07-30T07:07:40.818Z,18.19
2022-07-30T07:12:45.221Z,18.43
2022-07-30T07:17:49.404Z,18.54
2022-07-30T07:23:06.596Z,18.33
2022-07-30T07:28:13.532Z,18.51
2022-07-30T07:33:18.503Z,18.51
2022-07-30T07:38:21.834Z,18.67
2022-07-30T07:43:28.086Z,18.59
2022-07-30T07:48:32.878Z,18.68
2022-07-30T07:54:20.441Z,18.74
2022-07-30T07:59:35.848Z,18.89
2022-07-30T08:04:42.734Z,19.16
2022-07-30T08:09:45.069Z,19.27
2022-07-30T08:15:06.998Z,19.51
2022-07-30T08:20:33.654Z,19.64
2022-07-30T08:26:09.189Z,19.81
2022-07-30T08:31:11.164Z,19.73
2022-07-30T08:36:13.290Z,19.80
2022-07-30T08:41:19.857Z,20.03
2022-07-30T08:46:25.618Z,20.04
2022-07-30T08:51:38.956Z,20.09
2022-07-30T08:56:49.558Z,20.32
2022-07-30T09:01:52.151Z,20.56
2022-07-30T09:06:53.904Z,20.54
2022-07-30T09:11:55.721Z,20.74
2022-07-30T09:17:01.016Z,20.90
2022-07-30T09:22:03.316Z,20.95
2022-07-30T09:28:00.635Z,21.19
2022-07-30T09:33:43.433Z,21.31
2022-07-30T09:39:11.132Z,21.42
2022-07-30T09:44:38.840Z,21.67
2022-07-30T09:49:41.919Z,21.57
2022-07-30T09:54:53.011Z,21.81
2022-07-30T10:00:18.664Z,21.79
2022-07-30T10:05:26.000Z,21.97
2022-07-30T10:10:31.055Z,22.01
2022-07-30T10:15:35.608Z,21.96
2022-07-30T10:20:39.698Z,22.09
2022-07-30T10:26:13.255Z,22.27
2022-07-30T10:31:49.574Z,22.25
2022-07-30T10:37:01.946Z,22.31
2022-07-30T10:42:44.120Z,22.23
2022-07-30T10:47:50.957Z,22.31
2022-07-30T10:52:57.823Z,22.40
2022-07-30T10:58:04.301Z,22.43
2022-07-30T11:03:41.741Z,22.52
2022-07-30T11:08:48.549Z,22.53
2022-07-30T11:13:51.859Z,22.43
2022-07-30T11:19:56.105Z,22.43
2022-07-30T11:24:49.005Z,22.22
2022-07-30T11:29:51.647Z,22.22
2022-07-30T11:35:12.984Z,22.11
2022-07-30T11:40:15.111Z,22.04
2022-07-30T11:45:16.791Z,22.07
2022-07-30T11:50:32.420Z,21.77
2022-07-30T11:55:38.977Z,21.80
2022-07-30T12:00:45.594Z,21.86
2022-07-30T12:05:52.710Z,21.63
2022-07-30T12:11:00.547Z,21.70
2022-07-30T12:16:08.439Z,21.70
2022-07-30T12:21:17.149Z,21.81
2022-07-30T12:26:27.015Z,21.97
2022-07-30T12:31:29.478Z,22.10
2022-07-30T12:36:33.973Z,22.35
2022-07-30T12:41:44.286Z,22.31
2022-07-30T12:46:48.928Z,22.24
2022-07-30T12:51:52.591Z,22.24
2022-07-30T12:57:04.192Z,22.34
2022-07-30T13:02:06.100Z,22.42
2022-07-30T13:07:10.540Z,22.44
2022-07-30T13:12:13.257Z,22.58
2022-07-30T13:17:15.133Z,22.67
2022-07-30T13:22:17.005Z,22.62
2022-07-30T13:27:19.001Z,22.50
2022-07-30T13:32:21.108Z,22.53
2022-07-30T13:37:23.109Z,22.72
2022-07-30T13:42:37.801Z,22.66
2022-07-30T13:47:39.564Z,22.54
2022-07-30T13:52:41.297Z,22.60
2022-07-30T13:57:44.197Z,22.38
2022-07-30T14:02:47.088Z,22.58
2022-07-30T14:07:48.803Z,22.51
2022-07-30T14:12:56.376Z,22.44
2022-07-30T14:17:59.739Z,22.51
2022-07-30T14:23:01.785Z,22.56
2022-07-30T14:28:07.823Z,22.69
2022-07-30T14:33:10.257Z,22.62
2022-07-30T14:38:12.878Z,22.50
2022-07-30T14:43:15.305Z,22.71
2022-07-30T14:48:17.940Z,22.78
2022-07-30T14:53:22.342Z,22.67
2022-07-30T14:58:25.417Z,22.42
2022-07-30T15:03:27.850Z,22.45
2022-07-30T15:08:30.169Z,22.47
2022-07-30T15:13:36.365Z,22.39
2022-07-30T15:18:40.497Z,22.48
2022-07-30T15:23:44.655Z,22.53
2022-07-30T15:28:47.768Z,22.35
2022-07-30T15:33:53.303Z,22.33
2022-07-30T15:39:00.406Z,22.26
2022-07-30T15:44:13.794Z,22.06
2022-07-30T15:49:18.770Z,22.16
2022-07-30T15:54:27.434Z,21.95
2022-07-30T15:59:34.885Z,21.99
2022-07-30T16:04:48.424Z,21.94
2022-07-30T16:09:57.581Z,21.89
2022-07-30T16:15:00.416Z,22.00
2022-07-30T16:20:04.403Z,21.82
2022-07-30T16:25:07.014Z,21.90
2022-07-30T16:30:09.714Z,21.88
2022-07-30T16:35:13.470Z,21.85
2022-07-30T16:40:15.377Z,21.88
2022-07-30T16:45:17.063Z,21.75
2022-07-30T16:50:30.887Z,21.61
2022-07-30T16:55:33.344Z,21.60
2022-07-30T17:00:35.134Z,21.59
2022-07-30T17:05:45.171Z,21.67
2022-07-30T17:10:50.784Z,21.61
2022-07-30T17:15:52.690Z,21.60
2022-07-30T17:20:54.493Z,21.69
2022-07-30T17:25:56.295Z,21.69
2022-07-30T17:30:58.058Z,21.74
2022-07-30T17:36:01.365Z,21.71
2022-07-30T17:41:03.014Z,21.68
2022-07-30T17:46:04.799Z,21.63
2022-07-30T17:51:18.718Z,21.57
2022-07-30T17:56:26.473Z,21.64
2022-07-30T18:01:29.019Z,21.61
2022-07-30T18:06:30.733Z,21.70
2022-07-30T18:11:33.034Z,21.72
2022-07-30T18:16:34.906Z,21.63
2022-07-30T18:21:38.630Z,21.58
2022-07-30T18:26:47.034Z,21.50
2022-07-30T18:31:48.955Z,21.50
2022-07-30T18:36:51.372Z,21.49
2022-07-30T18:41:53.089Z,21.43
2022-07-30T18:46:54.797Z,21.42
2022-07-30T18:51:59.320Z,21.40
2022-07-30T18:57:01.012Z,21.40
2022-07-30T19:02:04.746Z,21.43
2022-07-30T19:07:07.319Z,21.41
2022-07-30T19:12:09.264Z,21.44
2022-07-30T19:17:45.986Z,21.39
2022-07-30T19:22:48.691Z,21.33
2022-07-30T19:27:52.411Z,21.30
2022-07-30T19:32:54.101Z,21.23
2022-07-30T19:37:56.952Z,21.25
2022-07-30T19:43:06.560Z,21.23
2022-07-30T19:48:12.916Z,21.22
2022-07-30T19:53:14.640Z,21.24
2022-07-30T19:58:17.897Z,21.18
2022-07-30T20:03:26.132Z,21.12
2022-07-30T20:08:35.646Z,21.12
2022-07-30T20:13:45.139Z,21.08
2022-07-30T20:18:59.318Z,21.01
2022-07-30T20:24:01.060Z,21.06
2022-07-30T20:29:09.171Z,21.08
2022-07-30T20:34:25.802Z,20.94
2022-07-30T20:39:28.046Z,20.91
2022-07-30T20:44:29.755Z,20.88
2022-07-30T20:49:35.215Z,20.92
2022-07-30T20:54:43.841Z,20.91
2022-07-30T20:59:47.501Z,20.92
2022-07-30T21:04:51.926Z,20.85
2022-07-30T21:09:54.150Z,20.80
2022-07-30T21:14:58.206Z,20.70
2022-07-30T21:20:00.045Z,20.67
2022-07-30T21:30:25.457Z,20.55
2022-07-30T21:35:31.959Z,20.59
2022-07-30T21:40:34.101Z,20.56
2022-07-30T21:45:38.097Z,20.61
2022-07-30T21:50:41.868Z,20.54
2022-07-30T21:55:52.944Z,20.49
2022-07-30T22:00:55.589Z,20.42
2022-07-30T22:05:57.442Z,20.44
2022-07-30T22:10:59.460Z,20.44
2022-07-30T22:16:01.138Z,20.40
2022-07-30T22:21:02.988Z,20.38
2022-07-30T22:26:06.998Z,20.46
2022-07-30T22:31:14.952Z,20.43
2022-07-30T22:36:24.530Z,20.37
2022-07-30T22:41:29.045Z,20.33
2022-07-30T22:46:32.058Z,20.21
2022-07-30T22:52:03.147Z,20.12
2022-07-30T22:56:56.690Z,19.95
2022-07-30T23:02:06.419Z,19.80
2022-07-30T23:07:14.289Z,19.77
2022-07-30T23:12:21.469Z,19.75
2022-07-30T23:12:31.285Z,20.67
2022-07-30T23:17:23.351Z,19.77
2022-07-30T23:22:25.797Z,19.71
2022-07-30T23:27:53.253Z,19.68
2022-07-30T23:32:55.201Z,19.67
2022-07-30T23:37:57.444Z,19.68
2022-07-30T23:42:59.449Z,19.72
2022-07-30T23:48:03.462Z,19.71
2022-07-30T23:53:05.498Z,19.67
2022-07-30T23:58:09.833Z,19.57
